sensor_id;sensor_type;location;lat;lon;timestamp;P1;durP1;ratioP1;P2;durP2;ratioP2
71038;SDS011;58692;43.212;27.908;2023-03-16T00:01:19;17.63;;;8.30;;
71038;SDS011;58692;43.212;27.908;2023-03-16T00:03:46;16.48;;;9.20;;
71038;SDS011;58692;43.212;27.908;2023-03-16T00:06:11;18.77;;;8.53;;
71038;SDS011;58692;43.212;27.908;2023-03-16T00:08:37;17.10;;;8.80;;
71038;SDS011;58692;43.212;27.908;2023-03-16T00:11:03;16.38;;;8.85;;
71038;SDS011;58692;43.212;27.908;2023-03-16T00:13:29;16.97;;;8.13;;
71038;SDS011;58692;43.212;27.908;2023-03-16T00:15:56;18.63;;;8.55;;
71038;SDS011;58692;43.212;27.908;2023-03-16T00:18:25;18.77;;;8.18;;
71038;SDS011;58692;43.212;27.908;2023-03-16T00:20:53;18.73;;;8.70;;
71038;SDS011;58692;43.212;27.908;2023-03-16T00:23:21;18.08;;;8.20;;
71038;SDS011;58692;43.212;27.908;2023-03-16T00:25:55;17.23;;;8.25;;
71038;SDS011;58692;43.212;27.908;2023-03-16T00:28:23;18.10;;;8.80;;
71038;SDS011;58692;43.212;27.908;2023-03-16T00:30:49;24.90;;;8.52;;
71038;SDS011;58692;43.212;27.908;2023-03-16T00:33:15;19.87;;;8.77;;
71038;SDS011;58692;43.212;27.908;2023-03-16T00:35:40;18.00;;;7.88;;
71038;SDS011;58692;43.212;27.908;2023-03-16T00:38:15;18.43;;;8.43;;
71038;SDS011;58692;43.212;27.908;2023-03-16T00:40:41;19.13;;;8.30;;
71038;SDS011;58692;43.212;27.908;2023-03-16T00:43:07;19.92;;;8.30;;
71038;SDS011;58692;43.212;27.908;2023-03-16T00:45:33;23.43;;;9.23;;
71038;SDS011;58692;43.212;27.908;2023-03-16T00:47:58;17.10;;;8.70;;
71038;SDS011;58692;43.212;27.908;2023-03-16T00:50:24;17.73;;;8.47;;
71038;SDS011;58692;43.212;27.908;2023-03-16T00:52:51;17.52;;;8.32;;
71038;SDS011;58692;43.212;27.908;2023-03-16T00:55:18;20.02;;;8.68;;
71038;SDS011;58692;43.212;27.908;2023-03-16T00:57:44;18.20;;;8.17;;
71038;SDS011;58692;43.212;27.908;2023-03-16T01:00:10;22.85;;;8.50;;
71038;SDS011;58692;43.212;27.908;2023-03-16T01:02:39;15.75;;;7.78;;
71038;SDS011;58692;43.212;27.908;2023-03-16T01:05:05;15.17;;;8.13;;
71038;SDS011;58692;43.212;27.908;2023-03-16T01:07:31;18.83;;;8.05;;
71038;SDS011;58692;43.212;27.908;2023-03-16T01:10:00;18.30;;;8.55;;
71038;SDS011;58692;43.212;27.908;2023-03-16T01:12:26;17.93;;;8.30;;
71038;SDS011;58692;43.212;27.908;2023-03-16T01:14:52;19.08;;;8.50;;
71038;SDS011;58692;43.212;27.908;2023-03-16T01:17:17;20.00;;;8.70;;
71038;SDS011;58692;43.212;27.908;2023-03-16T01:19:43;22.00;;;9.40;;
71038;SDS011;58692;43.212;27.908;2023-03-16T01:22:10;20.30;;;9.57;;
71038;SDS011;58692;43.212;27.908;2023-03-16T01:24:36;24.60;;;12.68;;
71038;SDS011;58692;43.212;27.908;2023-03-16T01:27:02;27.23;;;14.33;;
71038;SDS011;58692;43.212;27.908;2023-03-16T01:29:28;27.75;;;14.32;;
71038;SDS011;58692;43.212;27.908;2023-03-16T01:31:54;29.23;;;14.23;;
71038;SDS011;58692;43.212;27.908;2023-03-16T01:34:21;29.58;;;15.18;;
71038;SDS011;58692;43.212;27.908;2023-03-16T01:36:47;27.65;;;14.70;;
71038;SDS011;58692;43.212;27.908;2023-03-16T01:39:14;26.67;;;14.73;;
71038;SDS011;58692;43.212;27.908;2023-03-16T01:41:40;27.10;;;13.25;;
71038;SDS011;58692;43.212;27.908;2023-03-16T01:44:12;26.67;;;13.75;;
71038;SDS011;58692;43.212;27.908;2023-03-16T01:46:40;24.63;;;13.05;;
71038;SDS011;58692;43.212;27.908;2023-03-16T01:49:10;24.52;;;12.18;;
71038;SDS011;58692;43.212;27.908;2023-03-16T01:51:49;22.07;;;11.43;;
71038;SDS011;58692;43.212;27.908;2023-03-16T01:54:29;24.27;;;11.55;;
71038;SDS011;58692;43.212;27.908;2023-03-16T01:57:01;22.42;;;11.60;;
71038;SDS011;58692;43.212;27.908;2023-03-16T01:59:37;26.45;;;11.90;;
71038;SDS011;58692;43.212;27.908;2023-03-16T02:02:19;19.70;;;10.80;;
71038;SDS011;58692;43.212;27.908;2023-03-16T02:07:15;23.75;;;12.20;;
71038;SDS011;58692;43.212;27.908;2023-03-16T02:09:44;21.98;;;11.65;;
71038;SDS011;58692;43.212;27.908;2023-03-16T02:12:13;23.48;;;11.88;;
71038;SDS011;58692;43.212;27.908;2023-03-16T02:14:43;21.92;;;11.80;;
71038;SDS011;58692;43.212;27.908;2023-03-16T02:17:10;22.47;;;11.07;;
71038;SDS011;58692;43.212;27.908;2023-03-16T02:19:42;23.92;;;11.73;;
71038;SDS011;58692;43.212;27.908;2023-03-16T02:22:11;25.23;;;11.80;;
71038;SDS011;58692;43.212;27.908;2023-03-16T02:24:38;23.42;;;12.52;;
71038;SDS011;58692;43.212;27.908;2023-03-16T02:27:05;25.92;;;14.10;;
71038;SDS011;58692;43.212;27.908;2023-03-16T02:32:16;29.00;;;13.88;;
71038;SDS011;58692;43.212;27.908;2023-03-16T02:34:43;27.55;;;14.05;;
71038;SDS011;58692;43.212;27.908;2023-03-16T02:37:09;25.20;;;13.55;;
71038;SDS011;58692;43.212;27.908;2023-03-16T02:39:36;27.83;;;13.60;;
71038;SDS011;58692;43.212;27.908;2023-03-16T02:42:01;25.92;;;13.68;;
71038;SDS011;58692;43.212;27.908;2023-03-16T02:44:29;27.48;;;13.88;;
71038;SDS011;58692;43.212;27.908;2023-03-16T02:46:59;26.50;;;13.23;;
71038;SDS011;58692;43.212;27.908;2023-03-16T02:49:31;24.15;;;11.57;;
71038;SDS011;58692;43.212;27.908;2023-03-16T02:52:02;19.40;;;10.93;;
71038;SDS011;58692;43.212;27.908;2023-03-16T02:54:28;24.15;;;11.32;;
71038;SDS011;58692;43.212;27.908;2023-03-16T02:56:54;24.17;;;11.40;;
71038;SDS011;58692;43.212;27.908;2023-03-16T02:59:20;22.45;;;12.13;;
71038;SDS011;58692;43.212;27.908;2023-03-16T03:01:45;26.00;;;12.53;;
71038;SDS011;58692;43.212;27.908;2023-03-16T03:04:11;25.52;;;12.32;;
71038;SDS011;58692;43.212;27.908;2023-03-16T03:06:37;24.57;;;12.13;;
71038;SDS011;58692;43.212;27.908;2023-03-16T03:09:04;22.33;;;11.45;;
71038;SDS011;58692;43.212;27.908;2023-03-16T03:11:29;20.33;;;11.55;;
71038;SDS011;58692;43.212;27.908;2023-03-16T03:13:55;20.38;;;10.68;;
71038;SDS011;58692;43.212;27.908;2023-03-16T03:16:21;14.80;;;8.50;;
71038;SDS011;58692;43.212;27.908;2023-03-16T03:18:47;17.65;;;9.00;;
71038;SDS011;58692;43.212;27.908;2023-03-16T03:21:12;17.80;;;9.00;;
71038;SDS011;58692;43.212;27.908;2023-03-16T03:23:38;15.13;;;8.07;;
71038;SDS011;58692;43.212;27.908;2023-03-16T03:26:04;16.73;;;8.70;;
71038;SDS011;58692;43.212;27.908;2023-03-16T03:28:31;15.10;;;8.15;;
71038;SDS011;58692;43.212;27.908;2023-03-16T03:30:58;17.40;;;8.68;;
71038;SDS011;58692;43.212;27.908;2023-03-16T03:33:26;15.05;;;8.25;;
71038;SDS011;58692;43.212;27.908;2023-03-16T03:35:53;21.45;;;11.27;;
71038;SDS011;58692;43.212;27.908;2023-03-16T03:38:20;25.93;;;12.17;;
71038;SDS011;58692;43.212;27.908;2023-03-16T03:40:48;23.42;;;11.60;;
71038;SDS011;58692;43.212;27.908;2023-03-16T03:43:15;23.75;;;11.88;;
71038;SDS011;58692;43.212;27.908;2023-03-16T03:45:40;26.03;;;13.43;;
71038;SDS011;58692;43.212;27.908;2023-03-16T03:48:06;21.10;;;12.23;;
71038;SDS011;58692;43.212;27.908;2023-03-16T03:50:31;29.48;;;13.98;;
71038;SDS011;58692;43.212;27.908;2023-03-16T03:52:57;27.37;;;14.47;;
71038;SDS011;58692;43.212;27.908;2023-03-16T03:55:22;27.33;;;14.10;;
71038;SDS011;58692;43.212;27.908;2023-03-16T03:57:48;28.15;;;13.88;;
71038;SDS011;58692;43.212;27.908;2023-03-16T04:00:13;31.40;;;14.80;;
71038;SDS011;58692;43.212;27.908;2023-03-16T04:02:39;34.28;;;15.48;;
71038;SDS011;58692;43.212;27.908;2023-03-16T04:05:05;29.27;;;15.83;;
71038;SDS011;58692;43.212;27.908;2023-03-16T04:07:31;28.23;;;14.85;;
71038;SDS011;58692;43.212;27.908;2023-03-16T04:09:57;32.03;;;15.07;;
71038;SDS011;58692;43.212;27.908;2023-03-16T04:12:23;28.53;;;15.03;;
71038;SDS011;58692;43.212;27.908;2023-03-16T04:14:48;31.97;;;15.20;;
71038;SDS011;58692;43.212;27.908;2023-03-16T04:17:15;32.65;;;15.20;;
71038;SDS011;58692;43.212;27.908;2023-03-16T04:19:41;31.38;;;15.75;;
71038;SDS011;58692;43.212;27.908;2023-03-16T04:22:07;33.60;;;16.37;;
71038;SDS011;58692;43.212;27.908;2023-03-16T04:24:32;33.50;;;16.33;;
71038;SDS011;58692;43.212;27.908;2023-03-16T04:26:58;31.27;;;16.33;;
71038;SDS011;58692;43.212;27.908;2023-03-16T04:29:24;32.75;;;15.73;;
71038;SDS011;58692;43.212;27.908;2023-03-16T04:31:50;30.20;;;16.38;;
71038;SDS011;58692;43.212;27.908;2023-03-16T04:34:17;33.75;;;17.08;;
71038;SDS011;58692;43.212;27.908;2023-03-16T04:36:44;34.37;;;16.20;;
71038;SDS011;58692;43.212;27.908;2023-03-16T04:39:09;27.55;;;14.80;;
71038;SDS011;58692;43.212;27.908;2023-03-16T04:41:35;30.90;;;15.27;;
71038;SDS011;58692;43.212;27.908;2023-03-16T04:44:01;28.73;;;15.35;;
71038;SDS011;58692;43.212;27.908;2023-03-16T04:46:26;31.43;;;17.17;;
71038;SDS011;58692;43.212;27.908;2023-03-16T04:48:52;36.03;;;18.77;;
71038;SDS011;58692;43.212;27.908;2023-03-16T04:51:18;35.10;;;18.83;;
71038;SDS011;58692;43.212;27.908;2023-03-16T04:53:43;40.25;;;20.95;;
71038;SDS011;58692;43.212;27.908;2023-03-16T04:56:09;38.67;;;21.17;;
71038;SDS011;58692;43.212;27.908;2023-03-16T04:58:42;44.15;;;22.30;;
71038;SDS011;58692;43.212;27.908;2023-03-16T05:01:09;43.75;;;22.35;;
71038;SDS011;58692;43.212;27.908;2023-03-16T05:03:34;43.43;;;23.27;;
71038;SDS011;58692;43.212;27.908;2023-03-16T05:06:00;42.53;;;23.77;;
71038;SDS011;58692;43.212;27.908;2023-03-16T05:08:25;33.40;;;16.27;;
71038;SDS011;58692;43.212;27.908;2023-03-16T05:10:54;29.27;;;14.43;;
71038;SDS011;58692;43.212;27.908;2023-03-16T05:13:21;26.73;;;12.90;;
71038;SDS011;58692;43.212;27.908;2023-03-16T05:15:47;21.23;;;10.30;;
71038;SDS011;58692;43.212;27.908;2023-03-16T05:18:12;22.17;;;10.95;;
71038;SDS011;58692;43.212;27.908;2023-03-16T05:20:39;20.90;;;11.73;;
71038;SDS011;58692;43.212;27.908;2023-03-16T05:23:05;31.58;;;15.43;;
71038;SDS011;58692;43.212;27.908;2023-03-16T05:25:32;35.10;;;16.83;;
71038;SDS011;58692;43.212;27.908;2023-03-16T05:28:00;36.35;;;17.75;;
71038;SDS011;58692;43.212;27.908;2023-03-16T05:30:26;34.23;;;18.53;;
71038;SDS011;58692;43.212;27.908;2023-03-16T05:32:52;39.25;;;21.05;;
71038;SDS011;58692;43.212;27.908;2023-03-16T05:35:18;38.27;;;20.97;;
71038;SDS011;58692;43.212;27.908;2023-03-16T05:37:47;40.08;;;20.73;;
71038;SDS011;58692;43.212;27.908;2023-03-16T05:40:26;38.28;;;18.67;;
71038;SDS011;58692;43.212;27.908;2023-03-16T05:42:53;39.77;;;19.53;;
71038;SDS011;58692;43.212;27.908;2023-03-16T05:45:24;39.45;;;18.30;;
71038;SDS011;58692;43.212;27.908;2023-03-16T05:47:50;40.25;;;18.17;;
71038;SDS011;58692;43.212;27.908;2023-03-16T05:50:17;39.72;;;19.55;;
71038;SDS011;58692;43.212;27.908;2023-03-16T05:52:43;34.90;;;17.37;;
71038;SDS011;58692;43.212;27.908;2023-03-16T05:55:10;33.10;;;17.38;;
71038;SDS011;58692;43.212;27.908;2023-03-16T05:57:43;39.30;;;18.95;;
71038;SDS011;58692;43.212;27.908;2023-03-16T06:00:09;38.42;;;19.27;;
71038;SDS011;58692;43.212;27.908;2023-03-16T06:02:41;34.27;;;18.33;;
71038;SDS011;58692;43.212;27.908;2023-03-16T06:05:11;34.95;;;18.02;;
71038;SDS011;58692;43.212;27.908;2023-03-16T06:07:36;37.40;;;17.88;;
71038;SDS011;58692;43.212;27.908;2023-03-16T06:10:05;34.37;;;17.13;;
71038;SDS011;58692;43.212;27.908;2023-03-16T06:12:32;38.47;;;18.55;;
71038;SDS011;58692;43.212;27.908;2023-03-16T06:14:59;36.17;;;19.35;;
71038;SDS011;58692;43.212;27.908;2023-03-16T06:17:33;35.05;;;18.63;;
71038;SDS011;58692;43.212;27.908;2023-03-16T06:20:00;33.50;;;17.37;;
71038;SDS011;58692;43.212;27.908;2023-03-16T06:22:29;36.75;;;18.67;;
71038;SDS011;58692;43.212;27.908;2023-03-16T06:24:54;35.88;;;18.30;;
71038;SDS011;58692;43.212;27.908;2023-03-16T06:27:20;34.47;;;17.75;;
71038;SDS011;58692;43.212;27.908;2023-03-16T06:29:49;35.70;;;17.67;;
71038;SDS011;58692;43.212;27.908;2023-03-16T06:32:20;30.77;;;16.88;;
71038;SDS011;58692;43.212;27.908;2023-03-16T06:35:31;29.30;;;15.88;;
71038;SDS011;58692;43.212;27.908;2023-03-16T06:37:58;30.20;;;15.90;;
71038;SDS011;58692;43.212;27.908;2023-03-16T06:40:32;32.63;;;16.00;;
71038;SDS011;58692;43.212;27.908;2023-03-16T06:43:09;31.73;;;15.98;;
71038;SDS011;58692;43.212;27.908;2023-03-16T06:45:42;31.00;;;15.60;;
71038;SDS011;58692;43.212;27.908;2023-03-16T06:48:08;30.02;;;16.50;;
71038;SDS011;58692;43.212;27.908;2023-03-16T06:50:35;30.77;;;15.77;;
71038;SDS011;58692;43.212;27.908;2023-03-16T06:53:01;31.38;;;16.98;;
71038;SDS011;58692;43.212;27.908;2023-03-16T06:55:29;30.33;;;16.80;;
71038;SDS011;58692;43.212;27.908;2023-03-16T06:57:58;32.63;;;17.60;;
71038;SDS011;58692;43.212;27.908;2023-03-16T07:00:23;36.80;;;20.17;;
71038;SDS011;58692;43.212;27.908;2023-03-16T07:02:49;40.50;;;21.27;;
71038;SDS011;58692;43.212;27.908;2023-03-16T07:05:15;40.17;;;20.20;;
71038;SDS011;58692;43.212;27.908;2023-03-16T07:07:41;40.10;;;20.77;;
71038;SDS011;58692;43.212;27.908;2023-03-16T07:10:10;44.13;;;21.23;;
71038;SDS011;58692;43.212;27.908;2023-03-16T07:12:39;47.03;;;21.25;;
71038;SDS011;58692;43.212;27.908;2023-03-16T07:15:06;48.13;;;20.73;;
71038;SDS011;58692;43.212;27.908;2023-03-16T07:17:32;52.22;;;22.80;;
71038;SDS011;58692;43.212;27.908;2023-03-16T07:19:58;54.05;;;24.45;;
71038;SDS011;58692;43.212;27.908;2023-03-16T07:22:29;52.92;;;24.05;;
71038;SDS011;58692;43.212;27.908;2023-03-16T07:24:55;60.03;;;25.30;;
71038;SDS011;58692;43.212;27.908;2023-03-16T07:27:22;49.38;;;22.98;;
71038;SDS011;58692;43.212;27.908;2023-03-16T07:29:48;52.25;;;23.98;;
71038;SDS011;58692;43.212;27.908;2023-03-16T07:32:15;52.50;;;23.35;;
71038;SDS011;58692;43.212;27.908;2023-03-16T07:34:40;54.63;;;24.73;;
71038;SDS011;58692;43.212;27.908;2023-03-16T07:37:09;51.50;;;23.08;;
71038;SDS011;58692;43.212;27.908;2023-03-16T07:39:35;56.97;;;24.65;;
71038;SDS011;58692;43.212;27.908;2023-03-16T07:42:01;50.72;;;24.38;;
71038;SDS011;58692;43.212;27.908;2023-03-16T07:44:29;52.78;;;22.75;;
71038;SDS011;58692;43.212;27.908;2023-03-16T07:47:21;47.87;;;21.50;;
71038;SDS011;58692;43.212;27.908;2023-03-16T07:49:51;52.35;;;23.77;;
71038;SDS011;58692;43.212;27.908;2023-03-16T07:52:25;52.78;;;24.85;;
71038;SDS011;58692;43.212;27.908;2023-03-16T07:54:51;37.28;;;15.98;;
71038;SDS011;58692;43.212;27.908;2023-03-16T07:57:20;45.13;;;19.67;;
71038;SDS011;58692;43.212;27.908;2023-03-16T08:02:48;41.47;;;17.92;;
71038;SDS011;58692;43.212;27.908;2023-03-16T08:05:17;13.77;;;6.22;;
71038;SDS011;58692;43.212;27.908;2023-03-16T08:07:54;7.25;;;3.28;;
71038;SDS011;58692;43.212;27.908;2023-03-16T08:13:56;8.00;;;3.30;;
71038;SDS011;58692;43.212;27.908;2023-03-16T08:16:23;6.97;;;2.85;;
71038;SDS011;58692;43.212;27.908;2023-03-16T08:18:49;8.68;;;3.17;;
71038;SDS011;58692;43.212;27.908;2023-03-16T08:21:16;8.10;;;4.13;;
71038;SDS011;58692;43.212;27.908;2023-03-16T08:23:50;8.27;;;3.27;;
71038;SDS011;58692;43.212;27.908;2023-03-16T08:26:40;7.97;;;3.58;;
71038;SDS011;58692;43.212;27.908;2023-03-16T08:29:15;8.00;;;3.60;;
71038;SDS011;58692;43.212;27.908;2023-03-16T08:31:46;7.90;;;3.25;;
71038;SDS011;58692;43.212;27.908;2023-03-16T08:34:12;8.53;;;4.30;;
71038;SDS011;58692;43.212;27.908;2023-03-16T08:36:37;8.15;;;4.03;;
71038;SDS011;58692;43.212;27.908;2023-03-16T08:39:06;9.27;;;4.47;;
71038;SDS011;58692;43.212;27.908;2023-03-16T08:41:49;9.32;;;4.25;;
71038;SDS011;58692;43.212;27.908;2023-03-16T08:44:15;9.57;;;3.92;;
71038;SDS011;58692;43.212;27.908;2023-03-16T08:46:48;8.02;;;4.05;;
71038;SDS011;58692;43.212;27.908;2023-03-16T08:49:13;9.87;;;4.57;;
71038;SDS011;58692;43.212;27.908;2023-03-16T08:51:39;10.90;;;4.30;;
71038;SDS011;58692;43.212;27.908;2023-03-16T08:54:04;9.17;;;4.60;;
71038;SDS011;58692;43.212;27.908;2023-03-16T08:56:30;9.27;;;4.60;;
71038;SDS011;58692;43.212;27.908;2023-03-16T08:58:56;10.15;;;4.65;;
71038;SDS011;58692;43.212;27.908;2023-03-16T09:01:22;9.52;;;4.93;;
71038;SDS011;58692;43.212;27.908;2023-03-16T09:03:49;10.50;;;4.45;;
71038;SDS011;58692;43.212;27.908;2023-03-16T09:06:16;9.68;;;5.05;;
71038;SDS011;58692;43.212;27.908;2023-03-16T09:08:46;10.53;;;4.70;;
71038;SDS011;58692;43.212;27.908;2023-03-16T09:11:12;9.65;;;4.50;;
71038;SDS011;58692;43.212;27.908;2023-03-16T09:13:40;10.30;;;5.70;;
71038;SDS011;58692;43.212;27.908;2023-03-16T09:16:07;9.77;;;4.87;;
71038;SDS011;58692;43.212;27.908;2023-03-16T09:18:33;11.65;;;6.30;;
71038;SDS011;58692;43.212;27.908;2023-03-16T09:21:01;12.18;;;6.43;;
71038;SDS011;58692;43.212;27.908;2023-03-16T09:23:32;14.10;;;6.45;;
71038;SDS011;58692;43.212;27.908;2023-03-16T09:26:03;13.35;;;6.20;;
71038;SDS011;58692;43.212;27.908;2023-03-16T09:28:31;12.70;;;6.73;;
71038;SDS011;58692;43.212;27.908;2023-03-16T09:31:02;11.38;;;5.63;;
71038;SDS011;58692;43.212;27.908;2023-03-16T09:33:33;11.57;;;6.05;;
71038;SDS011;58692;43.212;27.908;2023-03-16T09:36:00;12.68;;;5.65;;
71038;SDS011;58692;43.212;27.908;2023-03-16T09:38:38;12.30;;;6.30;;
71038;SDS011;58692;43.212;27.908;2023-03-16T09:41:07;12.03;;;6.30;;
71038;SDS011;58692;43.212;27.908;2023-03-16T09:43:59;11.45;;;6.20;;
71038;SDS011;58692;43.212;27.908;2023-03-16T09:46:35;13.07;;;6.55;;
71038;SDS011;58692;43.212;27.908;2023-03-16T09:49:07;11.68;;;5.93;;
71038;SDS011;58692;43.212;27.908;2023-03-16T09:51:41;12.88;;;6.35;;
71038;SDS011;58692;43.212;27.908;2023-03-16T09:57:18;11.65;;;6.07;;
71038;SDS011;58692;43.212;27.908;2023-03-16T09:59:53;14.40;;;7.03;;
71038;SDS011;58692;43.212;27.908;2023-03-16T10:02:37;11.52;;;6.50;;
71038;SDS011;58692;43.212;27.908;2023-03-16T10:05:12;11.55;;;6.45;;
71038;SDS011;58692;43.212;27.908;2023-03-16T10:16:05;13.98;;;6.93;;
71038;SDS011;58692;43.212;27.908;2023-03-16T10:18:38;11.75;;;6.47;;
71038;SDS011;58692;43.212;27.908;2023-03-16T10:21:10;12.60;;;6.40;;
71038;SDS011;58692;43.212;27.908;2023-03-16T10:23:38;14.13;;;6.88;;
71038;SDS011;58692;43.212;27.908;2023-03-16T10:26:16;13.18;;;7.15;;
71038;SDS011;58692;43.212;27.908;2023-03-16T10:28:49;14.95;;;6.13;;
71038;SDS011;58692;43.212;27.908;2023-03-16T10:31:18;13.93;;;6.55;;
71038;SDS011;58692;43.212;27.908;2023-03-16T10:33:47;12.00;;;7.30;;
71038;SDS011;58692;43.212;27.908;2023-03-16T10:38:56;13.30;;;6.40;;
71038;SDS011;58692;43.212;27.908;2023-03-16T10:41:28;13.10;;;6.18;;
71038;SDS011;58692;43.212;27.908;2023-03-16T10:43:59;15.20;;;6.85;;
71038;SDS011;58692;43.212;27.908;2023-03-16T10:46:36;13.13;;;7.13;;
71038;SDS011;58692;43.212;27.908;2023-03-16T10:49:05;12.40;;;6.57;;
71038;SDS011;58692;43.212;27.908;2023-03-16T10:51:41;12.98;;;7.18;;
71038;SDS011;58692;43.212;27.908;2023-03-16T10:54:13;12.70;;;6.63;;
71038;SDS011;58692;43.212;27.908;2023-03-16T10:56:43;10.80;;;5.82;;
71038;SDS011;58692;43.212;27.908;2023-03-16T10:59:11;12.20;;;6.00;;
71038;SDS011;58692;43.212;27.908;2023-03-16T11:01:49;13.73;;;6.85;;
71038;SDS011;58692;43.212;27.908;2023-03-16T11:04:16;12.45;;;6.65;;
71038;SDS011;58692;43.212;27.908;2023-03-16T11:06:48;12.15;;;6.65;;
71038;SDS011;58692;43.212;27.908;2023-03-16T11:09:21;14.75;;;6.88;;
71038;SDS011;58692;43.212;27.908;2023-03-16T11:11:53;9.93;;;4.90;;
71038;SDS011;58692;43.212;27.908;2023-03-16T11:14:21;10.77;;;5.32;;
71038;SDS011;58692;43.212;27.908;2023-03-16T11:16:52;10.45;;;5.10;;
71038;SDS011;58692;43.212;27.908;2023-03-16T11:19:29;9.30;;;4.65;;
71038;SDS011;58692;43.212;27.908;2023-03-16T11:22:01;8.73;;;4.50;;
71038;SDS011;58692;43.212;27.908;2023-03-16T11:24:45;10.73;;;5.33;;
71038;SDS011;58692;43.212;27.908;2023-03-16T11:32:36;12.13;;;5.82;;
71038;SDS011;58692;43.212;27.908;2023-03-16T11:35:11;12.02;;;5.85;;
71038;SDS011;58692;43.212;27.908;2023-03-16T11:40:16;10.35;;;5.00;;
71038;SDS011;58692;43.212;27.908;2023-03-16T11:56:44;12.68;;;7.00;;
71038;SDS011;58692;43.212;27.908;2023-03-16T12:01:56;14.48;;;7.47;;
71038;SDS011;58692;43.212;27.908;2023-03-16T12:04:42;13.70;;;6.97;;
71038;SDS011;58692;43.212;27.908;2023-03-16T12:10:24;15.73;;;8.07;;
71038;SDS011;58692;43.212;27.908;2023-03-16T12:15:57;18.15;;;8.57;;
71038;SDS011;58692;43.212;27.908;2023-03-16T12:18:31;14.53;;;8.03;;
71038;SDS011;58692;43.212;27.908;2023-03-16T12:21:11;17.85;;;9.60;;
71038;SDS011;58692;43.212;27.908;2023-03-16T12:26:26;17.40;;;9.02;;
71038;SDS011;58692;43.212;27.908;2023-03-16T12:28:54;16.10;;;8.88;;
71038;SDS011;58692;43.212;27.908;2023-03-16T12:31:25;16.87;;;8.50;;
71038;SDS011;58692;43.212;27.908;2023-03-16T12:36:47;19.73;;;10.45;;
71038;SDS011;58692;43.212;27.908;2023-03-16T12:50:13;17.63;;;7.72;;
71038;SDS011;58692;43.212;27.908;2023-03-16T12:52:41;14.50;;;6.93;;
71038;SDS011;58692;43.212;27.908;2023-03-16T12:55:13;14.75;;;7.57;;
71038;SDS011;58692;43.212;27.908;2023-03-16T12:57:44;14.07;;;7.20;;
71038;SDS011;58692;43.212;27.908;2023-03-16T13:00:13;13.10;;;6.70;;
71038;SDS011;58692;43.212;27.908;2023-03-16T13:02:41;16.27;;;7.68;;
71038;SDS011;58692;43.212;27.908;2023-03-16T13:05:14;17.27;;;7.70;;
71038;SDS011;58692;43.212;27.908;2023-03-16T13:07:50;16.30;;;8.55;;
71038;SDS011;58692;43.212;27.908;2023-03-16T13:10:27;16.00;;;8.23;;
71038;SDS011;58692;43.212;27.908;2023-03-16T13:12:53;16.05;;;8.88;;
71038;SDS011;58692;43.212;27.908;2023-03-16T13:17:47;16.30;;;9.18;;
71038;SDS011;58692;43.212;27.908;2023-03-16T13:20:24;16.43;;;9.13;;
71038;SDS011;58692;43.212;27.908;2023-03-16T13:23:44;20.08;;;10.25;;
71038;SDS011;58692;43.212;27.908;2023-03-16T13:26:03;19.13;;;9.68;;
71038;SDS011;58692;43.212;27.908;2023-03-16T13:28:37;21.10;;;10.43;;
71038;SDS011;58692;43.212;27.908;2023-03-16T13:31:05;20.00;;;9.93;;
71038;SDS011;58692;43.212;27.908;2023-03-16T13:33:56;19.43;;;10.23;;
71038;SDS011;58692;43.212;27.908;2023-03-16T13:36:25;16.65;;;9.13;;
71038;SDS011;58692;43.212;27.908;2023-03-16T13:38:54;19.33;;;9.57;;
71038;SDS011;58692;43.212;27.908;2023-03-16T13:41:22;17.77;;;9.70;;
71038;SDS011;58692;43.212;27.908;2023-03-16T13:43:48;18.23;;;9.63;;
71038;SDS011;58692;43.212;27.908;2023-03-16T13:46:16;17.90;;;9.93;;
71038;SDS011;58692;43.212;27.908;2023-03-16T13:48:45;17.70;;;9.30;;
71038;SDS011;58692;43.212;27.908;2023-03-16T13:51:16;17.20;;;9.50;;
71038;SDS011;58692;43.212;27.908;2023-03-16T13:53:43;21.30;;;10.27;;
71038;SDS011;58692;43.212;27.908;2023-03-16T13:56:13;18.45;;;9.68;;
71038;SDS011;58692;43.212;27.908;2023-03-16T13:58:42;18.92;;;9.63;;
71038;SDS011;58692;43.212;27.908;2023-03-16T14:01:19;19.80;;;10.73;;
71038;SDS011;58692;43.212;27.908;2023-03-16T14:03:49;18.80;;;9.47;;
71038;SDS011;58692;43.212;27.908;2023-03-16T14:06:19;13.13;;;5.55;;
71038;SDS011;58692;43.212;27.908;2023-03-16T14:08:49;10.52;;;5.13;;
71038;SDS011;58692;43.212;27.908;2023-03-16T14:11:18;10.07;;;4.60;;
71038;SDS011;58692;43.212;27.908;2023-03-16T14:13:49;8.97;;;4.60;;
71038;SDS011;58692;43.212;27.908;2023-03-16T14:16:18;10.57;;;5.10;;
71038;SDS011;58692;43.212;27.908;2023-03-16T14:18:45;15.52;;;5.05;;
71038;SDS011;58692;43.212;27.908;2023-03-16T14:21:13;12.18;;;5.50;;
71038;SDS011;58692;43.212;27.908;2023-03-16T14:23:42;11.93;;;5.82;;
71038;SDS011;58692;43.212;27.908;2023-03-16T14:26:12;11.53;;;5.17;;
71038;SDS011;58692;43.212;27.908;2023-03-16T14:28:40;12.00;;;5.47;;
71038;SDS011;58692;43.212;27.908;2023-03-16T14:31:19;11.98;;;5.70;;
71038;SDS011;58692;43.212;27.908;2023-03-16T14:33:45;12.20;;;5.90;;
71038;SDS011;58692;43.212;27.908;2023-03-16T14:36:12;11.40;;;5.40;;
71038;SDS011;58692;43.212;27.908;2023-03-16T14:38:42;10.63;;;4.68;;
71038;SDS011;58692;43.212;27.908;2023-03-16T14:43:36;10.30;;;5.50;;
71038;SDS011;58692;43.212;27.908;2023-03-16T14:46:10;10.10;;;5.25;;
71038;SDS011;58692;43.212;27.908;2023-03-16T14:48:40;11.00;;;5.47;;
71038;SDS011;58692;43.212;27.908;2023-03-16T14:51:08;10.25;;;5.10;;
71038;SDS011;58692;43.212;27.908;2023-03-16T14:53:39;10.73;;;5.10;;
71038;SDS011;58692;43.212;27.908;2023-03-16T14:56:10;10.75;;;5.40;;
71038;SDS011;58692;43.212;27.908;2023-03-16T14:58:38;15.02;;;5.40;;
71038;SDS011;58692;43.212;27.908;2023-03-16T15:01:05;10.03;;;4.73;;
71038;SDS011;58692;43.212;27.908;2023-03-16T15:03:32;10.43;;;4.88;;
71038;SDS011;58692;43.212;27.908;2023-03-16T15:06:06;11.57;;;5.47;;
71038;SDS011;58692;43.212;27.908;2023-03-16T15:08:32;10.83;;;5.10;;
71038;SDS011;58692;43.212;27.908;2023-03-16T15:11:02;8.98;;;4.53;;
71038;SDS011;58692;43.212;27.908;2023-03-16T15:13:29;10.07;;;4.47;;
71038;SDS011;58692;43.212;27.908;2023-03-16T15:16:09;9.60;;;4.72;;
71038;SDS011;58692;43.212;27.908;2023-03-16T15:18:36;9.75;;;4.95;;
71038;SDS011;58692;43.212;27.908;2023-03-16T15:21:08;11.13;;;5.33;;
71038;SDS011;58692;43.212;27.908;2023-03-16T15:23:37;9.73;;;4.50;;
71038;SDS011;58692;43.212;27.908;2023-03-16T15:26:03;11.88;;;4.97;;
71038;SDS011;58692;43.212;27.908;2023-03-16T15:28:31;9.27;;;3.92;;
71038;SDS011;58692;43.212;27.908;2023-03-16T15:30:58;12.05;;;5.00;;
71038;SDS011;58692;43.212;27.908;2023-03-16T15:33:26;12.80;;;6.00;;
71038;SDS011;58692;43.212;27.908;2023-03-16T15:35:53;15.55;;;6.95;;
71038;SDS011;58692;43.212;27.908;2023-03-16T15:41:07;11.80;;;4.93;;
71038;SDS011;58692;43.212;27.908;2023-03-16T15:43:34;12.35;;;6.00;;
71038;SDS011;58692;43.212;27.908;2023-03-16T15:46:00;11.40;;;5.50;;
71038;SDS011;58692;43.212;27.908;2023-03-16T15:48:34;8.80;;;4.13;;